Terminal Aerodrome Forecast
Issued by NWS Jackson, MS

Home | Current Version | Previous Version | Text Only | Print | Product List | Glossary On
Versions: 1 2 3 4 5 6 7 8 9 10 11 12 13 14 15 16 17 18 19
000
FTUS44 KJAN 240953 AAB
TAFHBG
TAF AMD
KHBG 240953Z 2410/2506 21003KT 5SM SHRA VCTS SCT007 BKN025CB BKN050
     FM241500 26005KT 6SM SHRA VCTS BKN025CB BKN090
     FM250100 25004KT P6SM VCTS BKN090CB=

USA.gov is the U.S. government's official web portal to all federal, state and local government web resources and services.